Time,TemperatureF,DewpointF,PressureIn,WindDirection,WindDirectionDegrees,WindSpeedMPH,WindSpeedGustMPH,Humidity,HourlyPrecipIn,Conditions,Clouds,dailyrainin,SoftwareType,DateUTC
2013-08-02 00:14:00,67.3,64.0,29.91,SSW,211,0.0,0.0,89,0.00,,,0.00,weatherlink.com 1.10,2013-08-02 04:14:00,
2013-08-02 00:29:00,66.9,64.0,29.90,SW,223,2.0,2.0,90,0.00,,,0.00,weatherlink.com 1.10,2013-08-02 04:29:00,
2013-08-02 00:44:00,66.5,64.0,29.89,SSE,157,1.0,2.0,90,0.00,,,0.00,weatherlink.com 1.10,2013-08-02 04:44:00,
2013-08-02 00:59:00,66.3,63.0,29.90,SW,215,0.0,2.0,90,0.00,,,0.00,weatherlink.com 1.10,2013-08-02 04:59:00,
2013-08-02 01:14:00,66.1,64.0,29.90,SW,224,0.0,1.0,91,0.00,,,0.00,weatherlink.com 1.10,2013-08-02 05:14:00,
2013-08-02 01:29:00,65.6,63.0,29.89,SW,224,0.0,0.0,91,0.00,,,0.00,weatherlink.com 1.10,2013-08-02 05:29:00,
2013-08-02 01:44:00,65.1,63.0,29.89,SSW,210,0.0,0.0,92,0.00,,,0.00,weatherlink.com 1.10,2013-08-02 05:44:00,
2013-08-02 01:59:00,64.7,62.0,29.89,SSE,163,0.0,0.0,92,0.00,,,0.00,weatherlink.com 1.10,2013-08-02 05:59:00,
2013-08-02 02:14:00,64.4,62.0,29.88,South,174,0.0,0.0,92,0.00,,,0.00,weatherlink.com 1.10,2013-08-02 06:14:00,
2013-08-02 02:29:00,64.5,63.0,29.89,SW,226,1.0,1.0,93,0.00,,,0.00,weatherlink.com 1.10,2013-08-02 06:29:00,
2013-08-02 02:44:00,63.8,62.0,29.89,SW,221,1.0,2.0,92,0.00,,,0.00,weatherlink.com 1.10,2013-08-02 06:44:00,
2013-08-02 02:59:00,63.6,62.0,29.89,West,269,0.0,2.0,93,0.00,,,0.00,weatherlink.com 1.10,2013-08-02 06:59:00,
2013-08-02 03:14:00,63.6,62.0,29.89,West,260,0.0,2.0,94,0.00,,,0.00,weatherlink.com 1.10,2013-08-02 07:14:00,
2013-08-02 03:29:00,63.5,62.0,29.89,SW,214,0.0,1.0,94,0.00,,,0.00,weatherlink.com 1.10,2013-08-02 07:29:00,
2013-08-02 03:44:00,63.3,62.0,29.89,SW,217,1.0,2.0,94,0.00,,,0.00,weatherlink.com 1.10,2013-08-02 07:44:00,
2013-08-02 03:59:00,63.1,61.0,29.89,SW,221,1.0,2.0,94,0.00,,,0.00,weatherlink.com 1.10,2013-08-02 07:59:00,
2013-08-02 04:14:00,63.1,61.0,29.89,SW,221,1.0,2.0,94,0.00,,,0.00,weatherlink.com 1.10,2013-08-02 08:14:00,
2013-08-02 04:29:00,63.2,62.0,29.89,SW,225,0.0,1.0,95,0.00,,,0.00,weatherlink.com 1.10,2013-08-02 08:29:00,
2013-08-02 04:44:00,62.8,61.0,29.89,SW,229,0.0,2.0,95,0.00,,,0.00,weatherlink.com 1.10,2013-08-02 08:44:00,
2013-08-02 04:59:00,62.4,61.0,29.89,West,273,0.0,0.0,94,0.00,,,0.00,weatherlink.com 1.10,2013-08-02 08:59:00,
2013-08-02 05:14:00,62.2,61.0,29.89,SW,235,0.0,2.0,94,0.00,,,0.00,weatherlink.com 1.10,2013-08-02 09:14:00,
2013-08-02 05:29:00,62.0,60.0,29.90,SW,224,0.0,0.0,94,0.00,,,0.00,weatherlink.com 1.10,2013-08-02 09:29:00,
2013-08-02 05:44:00,62.1,61.0,29.90,WSW,257,0.0,0.0,95,0.00,,,0.00,weatherlink.com 1.10,2013-08-02 09:44:00,
2013-08-02 05:59:00,62.2,61.0,29.91,West,264,0.0,2.0,95,0.00,,,0.00,weatherlink.com 1.10,2013-08-02 09:59:00,
2013-08-02 06:14:00,62.0,61.0,29.92,West,264,0.0,2.0,95,0.00,,,0.00,weatherlink.com 1.10,2013-08-02 10:14:00,
2013-08-02 06:29:00,61.8,60.0,29.92,West,261,1.0,2.0,95,0.00,,,0.00,weatherlink.com 1.10,2013-08-02 10:29:00,
2013-08-02 06:44:00,62.0,61.0,29.93,SW,226,1.0,2.0,95,0.00,,,0.00,weatherlink.com 1.10,2013-08-02 10:44:00,
2013-08-02 06:59:00,62.2,61.0,29.93,WSW,242,2.0,3.0,94,0.00,,,0.00,weatherlink.com 1.10,2013-08-02 10:59:00,
2013-08-02 07:14:00,62.5,61.0,29.94,WSW,246,0.0,2.0,94,0.00,,,0.00,weatherlink.com 1.10,2013-08-02 11:14:00,
2013-08-02 07:29:00,63.2,61.0,29.93,NW,317,0.0,0.0,93,0.00,,,0.00,weatherlink.com 1.10,2013-08-02 11:29:00,
2013-08-02 07:44:00,64.7,61.0,29.95,West,273,4.0,7.0,88,0.00,,,0.00,weatherlink.com 1.10,2013-08-02 11:44:00,
2013-08-02 07:59:00,65.7,61.0,29.95,SW,231,4.0,7.0,84,0.00,,,0.00,weatherlink.com 1.10,2013-08-02 11:59:00,
2013-08-02 08:14:00,66.4,62.0,29.95,WSW,252,4.0,7.0,84,0.00,,,0.00,weatherlink.com 1.10,2013-08-02 12:14:00,
2013-08-02 08:29:00,66.9,62.0,29.95,West,273,5.0,6.0,83,0.00,,,0.00,weatherlink.com 1.10,2013-08-02 12:29:00,
2013-08-02 08:45:00,67.1,62.0,29.95,WSW,249,3.0,8.0,83,0.00,,,0.00,weatherlink.com 1.10,2013-08-02 12:45:00,
2013-08-02 09:00:00,67.3,61.0,29.95,WSW,249,2.0,6.0,81,0.00,,,0.00,weatherlink.com 1.10,2013-08-02 13:00:00,
2013-08-02 09:15:00,-999.0,-99.9,29.94,North,-999,-999.0,-999.0,-999,0.00,,,0.00,weatherlink.com 1.10,2013-08-02 13:15:00,
2013-08-02 09:30:00,-999.0,-99.9,29.94,North,-999,-999.0,-999.0,-999,0.00,,,0.00,weatherlink.com 1.10,2013-08-02 13:30:00,
2013-08-02 09:45:00,-999.0,-99.9,29.94,North,-999,-999.0,-999.0,-999,0.00,,,0.00,weatherlink.com 1.10,2013-08-02 13:45:00,
2013-08-02 10:00:00,-999.0,-99.9,29.94,North,-999,-999.0,-999.0,-999,0.00,,,0.00,weatherlink.com 1.10,2013-08-02 14:00:00,
2013-08-02 10:15:00,-999.0,-99.9,29.94,North,-999,-999.0,-999.0,-999,0.00,,,0.00,weatherlink.com 1.10,2013-08-02 14:15:00,
2013-08-02 10:30:00,-999.0,-99.9,29.95,North,-999,-999.0,-999.0,-999,0.00,,,0.00,weatherlink.com 1.10,2013-08-02 14:30:00,
2013-08-02 10:45:00,-999.0,-99.9,29.95,North,-999,-999.0,-999.0,-999,0.00,,,0.00,weatherlink.com 1.10,2013-08-02 14:45:00,
2013-08-02 11:00:00,-999.0,-99.9,29.95,North,-999,-999.0,-999.0,-999,0.00,,,0.00,weatherlink.com 1.10,2013-08-02 15:00:00,
2013-08-02 11:15:00,-999.0,-99.9,29.95,North,-999,-999.0,-999.0,-999,0.00,,,0.00,weatherlink.com 1.10,2013-08-02 15:15:00,
2013-08-02 11:30:00,-999.0,-99.9,29.95,North,-999,-999.0,-999.0,-999,0.00,,,0.00,weatherlink.com 1.10,2013-08-02 15:30:00,
2013-08-02 11:45:00,-999.0,-99.9,29.95,North,-999,-999.0,-999.0,-999,0.00,,,0.00,weatherlink.com 1.10,2013-08-02 15:45:00,
2013-08-02 12:00:00,-999.0,-99.9,29.95,North,-999,-999.0,-999.0,-999,0.00,,,0.00,weatherlink.com 1.10,2013-08-02 16:00:00,
2013-08-02 12:15:00,-999.0,-99.9,29.95,North,-999,-999.0,-999.0,-999,0.00,,,0.00,weatherlink.com 1.10,2013-08-02 16:15:00,
2013-08-02 12:31:00,-999.0,-99.9,29.95,North,-999,-999.0,-999.0,-999,0.00,,,0.00,weatherlink.com 1.10,2013-08-02 16:31:00,
2013-08-02 12:46:00,-999.0,-99.9,29.95,North,-999,-999.0,-999.0,-999,0.00,,,0.00,weatherlink.com 1.10,2013-08-02 16:46:00,
2013-08-02 13:01:00,-999.0,-99.9,29.96,North,-999,-999.0,-999.0,-999,0.00,,,0.00,weatherlink.com 1.10,2013-08-02 17:01:00,
2013-08-02 13:16:00,-999.0,-99.9,29.96,North,-999,-999.0,-999.0,-999,0.00,,,0.00,weatherlink.com 1.10,2013-08-02 17:16:00,
2013-08-02 13:31:00,-999.0,-99.9,29.96,North,-999,-999.0,-999.0,-999,0.00,,,0.00,weatherlink.com 1.10,2013-08-02 17:31:00,
2013-08-02 14:01:00,-999.0,-99.9,29.97,North,-999,-999.0,-999.0,-999,0.00,,,0.00,weatherlink.com 1.10,2013-08-02 18:01:00,
2013-08-02 14:31:00,-999.0,-99.9,29.97,North,-999,-999.0,-999.0,-999,0.00,,,0.00,weatherlink.com 1.10,2013-08-02 18:31:00,
2013-08-02 14:46:00,75.7,54.0,29.97,WNW,290,9.0,13.0,47,0.00,,,0.00,weatherlink.com 1.10,2013-08-02 18:46:00,
2013-08-02 15:01:00,75.2,52.0,29.96,West,281,8.0,16.0,44,0.00,,,0.00,weatherlink.com 1.10,2013-08-02 19:01:00,
2013-08-02 15:16:00,75.3,53.0,29.96,WNW,285,9.0,13.0,46,0.00,,,0.00,weatherlink.com 1.10,2013-08-02 19:16:00,
2013-08-02 15:31:00,75.3,54.0,29.95,WNW,300,6.0,12.0,47,0.00,,,0.00,weatherlink.com 1.10,2013-08-02 19:31:00,
2013-08-02 15:46:00,-999.0,-99.9,29.93,North,-999,-999.0,-999.0,-999,0.00,,,0.00,weatherlink.com 1.10,2013-08-02 19:46:00,
2013-08-02 16:01:00,-999.0,-99.9,29.94,North,-999,-999.0,-999.0,-999,0.00,,,0.00,weatherlink.com 1.10,2013-08-02 20:01:00,
2013-08-02 16:16:00,-999.0,-99.9,29.94,North,-999,-999.0,-999.0,-999,0.00,,,0.00,weatherlink.com 1.10,2013-08-02 20:16:00,
2013-08-02 16:32:00,-999.0,-99.9,29.95,North,-999,-999.0,-999.0,-999,0.00,,,0.00,weatherlink.com 1.10,2013-08-02 20:32:00,
2013-08-02 16:47:00,-999.0,-99.9,29.94,North,-999,-999.0,-999.0,-999,0.00,,,0.00,weatherlink.com 1.10,2013-08-02 20:47:00,
2013-08-02 17:02:00,-999.0,-99.9,29.94,North,-999,-999.0,-999.0,-999,0.00,,,0.00,weatherlink.com 1.10,2013-08-02 21:02:00,
2013-08-02 17:17:00,-999.0,-99.9,29.93,North,-999,-999.0,-999.0,-999,0.00,,,0.00,weatherlink.com 1.10,2013-08-02 21:17:00,
2013-08-02 17:32:00,-999.0,-99.9,29.93,North,-999,-999.0,-999.0,-999,0.00,,,0.00,weatherlink.com 1.10,2013-08-02 21:32:00,
2013-08-02 17:47:00,-999.0,-99.9,29.93,North,-999,-999.0,-999.0,-999,0.00,,,0.00,weatherlink.com 1.10,2013-08-02 21:47:00,
2013-08-02 18:02:00,-999.0,-99.9,29.92,North,-999,-999.0,-999.0,-999,0.00,,,0.00,weatherlink.com 1.10,2013-08-02 22:02:00,
2013-08-02 18:17:00,-999.0,-99.9,29.91,North,-999,-999.0,-999.0,-999,0.00,,,0.00,weatherlink.com 1.10,2013-08-02 22:17:00,
2013-08-02 18:32:00,-999.0,-99.9,29.91,North,-999,-999.0,-999.0,-999,0.00,,,0.00,weatherlink.com 1.10,2013-08-02 22:32:00,
2013-08-02 18:47:00,-999.0,-99.9,29.91,North,-999,-999.0,-999.0,-999,0.00,,,0.00,weatherlink.com 1.10,2013-08-02 22:47:00,
2013-08-02 19:02:00,-999.0,-99.9,29.91,North,-999,-999.0,-999.0,-999,0.00,,,0.00,weatherlink.com 1.10,2013-08-02 23:02:00,
2013-08-02 19:17:00,-999.0,-99.9,29.91,North,-999,-999.0,-999.0,-999,0.00,,,0.00,weatherlink.com 1.10,2013-08-02 23:17:00,
2013-08-02 19:32:00,-999.0,-99.9,29.90,North,-999,-999.0,-999.0,-999,0.00,,,0.00,weatherlink.com 1.10,2013-08-02 23:32:00,
2013-08-02 19:47:00,-999.0,-99.9,29.90,North,-999,-999.0,-999.0,-999,0.00,,,0.00,weatherlink.com 1.10,2013-08-02 23:47:00,
2013-08-02 20:02:00,-999.0,-99.9,29.90,North,-999,-999.0,-999.0,-999,0.00,,,0.00,weatherlink.com 1.10,2013-08-03 00:02:00,
2013-08-02 20:18:00,-999.0,-99.9,29.91,North,-999,-999.0,-999.0,-999,0.00,,,0.00,weatherlink.com 1.10,2013-08-03 00:18:00,
2013-08-02 20:32:00,-999.0,-99.9,29.91,North,-999,-999.0,-999.0,-999,0.00,,,0.00,weatherlink.com 1.10,2013-08-03 00:32:00,
2013-08-02 20:48:00,-999.0,-99.9,29.91,North,-999,-999.0,-999.0,-999,0.00,,,0.00,weatherlink.com 1.10,2013-08-03 00:48:00,
2013-08-02 21:03:00,-999.0,-99.9,29.91,North,-999,-999.0,-999.0,-999,0.00,,,0.00,weatherlink.com 1.10,2013-08-03 01:03:00,
2013-08-02 21:18:00,-999.0,-99.9,29.92,North,-999,-999.0,-999.0,-999,0.00,,,0.00,weatherlink.com 1.10,2013-08-03 01:18:00,
2013-08-02 21:33:00,-999.0,-99.9,29.92,North,-999,-999.0,-999.0,-999,0.00,,,0.00,weatherlink.com 1.10,2013-08-03 01:33:00,
2013-08-02 21:48:00,-999.0,-99.9,29.92,North,-999,-999.0,-999.0,-999,0.00,,,0.00,weatherlink.com 1.10,2013-08-03 01:48:00,
2013-08-02 22:03:00,-999.0,-99.9,29.92,North,-999,-999.0,-999.0,-999,0.00,,,0.00,weatherlink.com 1.10,2013-08-03 02:03:00,
2013-08-02 22:18:00,-999.0,-99.9,29.92,North,-999,-999.0,-999.0,-999,0.00,,,0.00,weatherlink.com 1.10,2013-08-03 02:18:00,
2013-08-02 22:33:00,-999.0,-99.9,29.92,North,-999,-999.0,-999.0,-999,0.00,,,0.00,weatherlink.com 1.10,2013-08-03 02:33:00,
2013-08-02 22:48:00,-999.0,-99.9,29.92,North,-999,-999.0,-999.0,-999,0.00,,,0.00,weatherlink.com 1.10,2013-08-03 02:48:00,
2013-08-02 23:03:00,-999.0,-99.9,29.93,North,-999,-999.0,-999.0,-999,0.00,,,0.00,weatherlink.com 1.10,2013-08-03 03:03:00,
2013-08-02 23:18:00,-999.0,-99.9,29.93,North,-999,-999.0,-999.0,-999,0.00,,,0.00,weatherlink.com 1.10,2013-08-03 03:18:00,
2013-08-02 23:34:00,-999.0,-99.9,29.92,North,-999,-999.0,-999.0,-999,0.00,,,0.00,weatherlink.com 1.10,2013-08-03 03:34:00,
2013-08-02 23:48:00,-999.0,-99.9,29.92,North,-999,-999.0,-999.0,-999,0.00,,,0.00,weatherlink.com 1.10,2013-08-03 03:48:00,